首页
METAR-TAF:

METAR-TAF

机场 :

阿卡普尔科, 墨西哥

纬度: 16-46N, 经度: 099-45W, 海拔: 5米

当前天气观测

该预报发布于36分钟前的04:52 UTC
静风
温度 27°C
湿度 84%
气压 1012 hPa
能見度: 8.0公里
散云层高于10000英尺
阴天层高于30000英尺

METAR: MMAA 220452Z 00000KT 5SM SCT100 OVC300 27/24 A2988 RMK 8/077 HZY MSGTX MMMX

时间: 00:28 (05:28 UTC)

预报

该预报发布于6小时和13分钟前的23:15 UTC
预报有效从22日的 00点(UTC)到 23日的 00点(UTC)
风速5节,风向西
能見度: 10公里
散云层高于8000英尺
多云层高于24000英尺
从 22日的 0400点(UTC)
风速节,风向
能見度: 8.0公里
散云层高于3000英尺
短暂存在
从 22日的 10点(UTC)到 22日的 14点(UTC)
能見度: 6.4公里
多云层高于2000英尺
小雨
从 22日的 1500点(UTC)
风速5节,风向南转西南
能見度: 10公里
散云层高于3000英尺
多云层高于10000英尺
成为
从 22日的 19点(UTC)到 22日的 20点(UTC)
风速10节,风向西转西南

TAF: MMAA 212315Z 2200/2300 26005KT P6SM SCT080 BKN240 TX30/2221Z TN24/2212Z FM220400 00000KT 5SM HZ SCT030 TEMPO 2210/2214 4SM -RA BKN020 FM221500 20005KT P6SM SCT030 BKN100 BECMG 2219/2220 24010KT

超过4000个机场的气象观测和天气预报(METAR&TAF报告)。

可查询的气象台以黄色和红色小点在地图上表示。

将鼠标移到小点上方,可查看气象台名称。

然后点击查看天气观测和预报。

如需切换地图:点击带黑十字的绿色按钮放大地图;点击带横线的绿色按钮缩小地图;或者点击绿色箭头查看邻近地区的地图。


METAR-TAF: